createdAt,value
2018-05-31T00:01:58.543Z,99447.78
2018-05-31T00:04:26.959Z,99443.08
2018-05-31T00:06:54.465Z,99440.66
2018-05-31T00:09:21.950Z,99440.30
2018-05-31T00:11:49.451Z,99441.36
2018-05-31T00:14:16.922Z,99446.13
2018-05-31T00:16:44.401Z,99445.06
2018-05-31T00:19:11.900Z,99446.55
2018-05-31T00:21:39.382Z,99437.47
2018-05-31T00:24:06.859Z,99434.22
2018-05-31T00:26:34.370Z,99433.38
2018-05-31T00:29:01.851Z,99426.90
2018-05-31T00:31:29.321Z,99429.67
2018-05-31T00:33:57.685Z,99434.40
2018-05-31T00:36:25.181Z,99420.72
2018-05-31T00:38:52.675Z,99420.00
2018-05-31T00:41:20.160Z,99416.08
2018-05-31T00:43:47.621Z,99421.32
2018-05-31T00:46:15.139Z,99418.97
2018-05-31T00:48:42.680Z,99415.29
2018-05-31T00:51:10.498Z,99413.42
2018-05-31T00:53:37.961Z,99411.09
2018-05-31T00:56:17.307Z,99415.38
2018-05-31T00:58:44.791Z,99416.27
2018-05-31T01:01:12.343Z,99416.81
2018-05-31T01:03:39.835Z,99413.53
2018-05-31T01:06:07.312Z,99409.77
2018-05-31T01:08:34.794Z,99414.55
2018-05-31T01:11:02.360Z,99408.02
2018-05-31T01:13:29.831Z,99410.03
2018-05-31T01:15:57.295Z,99412.16
2018-05-31T01:18:24.782Z,99407.96
2018-05-31T01:20:52.248Z,99408.76
2018-05-31T01:23:19.734Z,99409.77
2018-05-31T01:25:47.223Z,99408.59
2018-05-31T01:28:14.702Z,99416.62
2018-05-31T01:30:42.218Z,99418.50
2018-05-31T01:33:09.759Z,99417.49
2018-05-31T01:35:37.237Z,99413.98
2018-05-31T01:38:16.422Z,99413.61
2018-05-31T01:40:43.884Z,99407.13
2018-05-31T01:43:11.359Z,99410.17
2018-05-31T01:45:38.866Z,99408.43
2018-05-31T01:48:06.369Z,99408.66
2018-05-31T01:50:33.856Z,99408.83
2018-05-31T01:53:01.347Z,99406.05
2018-05-31T01:55:28.831Z,99409.61
2018-05-31T01:57:56.309Z,99412.20
2018-05-31T02:00:23.803Z,99414.20
2018-05-31T02:02:51.280Z,99408.41
2018-05-31T02:05:18.773Z,99408.66
2018-05-31T02:07:46.283Z,99402.34
2018-05-31T02:10:13.776Z,99400.30
2018-05-31T02:12:41.311Z,99397.73
2018-05-31T02:15:08.787Z,99387.92
2018-05-31T02:17:36.272Z,99386.66
2018-05-31T02:20:03.810Z,99380.64
2018-05-31T02:22:31.287Z,99376.73
2018-05-31T02:24:58.759Z,99386.83
2018-05-31T02:27:26.259Z,99382.50
2018-05-31T02:29:53.800Z,99380.33
2018-05-31T02:32:21.291Z,99381.13
2018-05-31T02:34:48.763Z,99380.27
2018-05-31T02:37:16.240Z,99383.54
2018-05-31T02:39:43.763Z,99383.37
2018-05-31T02:42:11.313Z,99387.62
2018-05-31T02:44:38.786Z,99393.19
2018-05-31T02:47:12.111Z,99387.98
2018-05-31T02:49:39.587Z,99389.87
2018-05-31T02:52:07.063Z,99398.70
2018-05-31T02:54:34.556Z,99395.12
2018-05-31T02:57:02.421Z,99399.55
2018-05-31T02:59:29.953Z,99403.23
2018-05-31T03:01:57.491Z,99406.75
2018-05-31T03:04:25.000Z,99402.24
2018-05-31T03:06:52.480Z,99401.06
2018-05-31T03:09:19.973Z,99407.53
2018-05-31T03:11:47.468Z,99414.59
2018-05-31T03:14:14.963Z,99410.62
2018-05-31T03:16:42.446Z,99410.82
2018-05-31T03:19:09.923Z,99419.45
2018-05-31T03:21:37.404Z,99414.56
2018-05-31T03:24:04.915Z,99409.18
2018-05-31T03:26:32.427Z,99415.31
2018-05-31T03:28:59.897Z,99420.95
2018-05-31T03:31:27.412Z,99413.91
2018-05-31T03:33:54.878Z,99421.40
2018-05-31T03:36:22.349Z,99418.47
2018-05-31T03:38:49.850Z,99419.31
2018-05-31T03:41:17.377Z,99414.42
2018-05-31T03:43:44.838Z,99416.89
2018-05-31T03:46:12.352Z,99412.86
2018-05-31T03:48:39.839Z,99416.48
2018-05-31T03:51:07.343Z,99422.22
2018-05-31T03:53:34.844Z,99421.56
2018-05-31T03:56:03.488Z,99421.69
2018-05-31T03:58:31.115Z,99428.87
2018-05-31T04:00:58.593Z,99433.97
2018-05-31T04:03:26.109Z,99432.08
2018-05-31T04:05:53.627Z,99426.47
2018-05-31T04:08:21.171Z,99438.05
2018-05-31T04:10:48.631Z,99441.30
2018-05-31T04:13:17.011Z,99438.33
2018-05-31T04:15:44.512Z,99440.20
2018-05-31T04:18:12.355Z,99446.22
2018-05-31T04:20:39.836Z,99440.69
2018-05-31T04:23:07.360Z,99438.11
2018-05-31T04:25:34.831Z,99440.39
2018-05-31T04:28:02.319Z,99437.96
2018-05-31T04:30:29.804Z,99440.59
2018-05-31T04:32:57.276Z,99445.43
2018-05-31T04:35:24.753Z,99448.09
2018-05-31T04:37:52.241Z,99437.28
2018-05-31T04:40:19.767Z,99436.61
2018-05-31T04:42:47.256Z,99439.60
2018-05-31T04:45:15.665Z,99445.08
2018-05-31T04:47:43.159Z,99443.69
2018-05-31T04:50:10.635Z,99437.41
2018-05-31T04:52:38.182Z,99446.16
2018-05-31T04:55:05.692Z,99460.17
2018-05-31T04:57:33.177Z,99460.73
2018-05-31T05:00:00.670Z,99455.81
2018-05-31T05:02:28.162Z,99459.37
2018-05-31T05:04:55.655Z,99456.22
2018-05-31T05:07:23.426Z,99450.98
2018-05-31T05:09:51.540Z,99451.91
2018-05-31T05:12:19.020Z,99453.77
2018-05-31T05:14:46.544Z,99458.90
2018-05-31T05:17:14.047Z,99455.10
2018-05-31T05:19:42.170Z,99446.91
2018-05-31T05:22:09.667Z,99450.83
2018-05-31T05:24:37.160Z,99450.18
2018-05-31T05:27:04.643Z,99452.36
2018-05-31T05:29:32.150Z,99451.28
2018-05-31T05:31:59.666Z,99449.70
2018-05-31T05:34:27.913Z,99456.88
2018-05-31T05:36:55.454Z,99448.22
2018-05-31T05:39:22.931Z,99454.13
2018-05-31T05:41:50.419Z,99447.20
2018-05-31T05:44:17.916Z,99448.08
2018-05-31T05:46:45.402Z,99453.07
2018-05-31T05:49:12.871Z,99456.63
2018-05-31T05:51:40.388Z,99456.59
2018-05-31T05:54:07.880Z,99454.35
2018-05-31T05:56:35.353Z,99451.70
2018-05-31T05:59:02.857Z,99456.62
2018-05-31T06:01:30.344Z,99462.30
2018-05-31T06:03:57.860Z,99463.00
2018-05-31T06:06:25.431Z,99463.21
2018-05-31T06:08:52.911Z,99464.34
2018-05-31T06:11:20.404Z,99457.56
2018-05-31T06:13:47.942Z,99465.56
2018-05-31T06:16:15.448Z,99459.86
2018-05-31T06:18:42.916Z,99468.89
2018-05-31T06:21:10.406Z,99471.45
2018-05-31T06:23:37.911Z,99463.47
2018-05-31T06:26:05.394Z,99462.47
2018-05-31T06:28:32.930Z,99465.45
2018-05-31T06:31:00.421Z,99458.84
2018-05-31T06:33:27.993Z,99458.95
2018-05-31T06:35:55.423Z,99459.20
2018-05-31T06:38:22.915Z,99459.13
2018-05-31T06:40:50.379Z,99457.77
2018-05-31T06:43:17.861Z,99461.33
2018-05-31T06:45:45.332Z,99457.85
2018-05-31T06:48:12.782Z,99465.89
2018-05-31T06:50:40.276Z,99465.61
2018-05-31T06:53:07.736Z,99467.72
2018-05-31T06:55:36.698Z,99467.23
2018-05-31T06:58:04.185Z,99460.48
2018-05-31T07:00:31.640Z,99462.92
2018-05-31T07:02:59.123Z,99464.48
2018-05-31T07:05:27.176Z,99459.33
2018-05-31T07:07:54.639Z,99457.98
2018-05-31T07:10:22.099Z,99459.55
2018-05-31T07:12:49.591Z,99464.78
2018-05-31T07:15:17.118Z,99465.26
2018-05-31T07:17:44.582Z,99462.88
2018-05-31T07:20:12.101Z,99464.56
2018-05-31T07:22:39.553Z,99463.68
2018-05-31T07:25:07.066Z,99463.50
2018-05-31T07:27:34.571Z,99471.53
2018-05-31T07:30:02.061Z,99467.94
2018-05-31T07:32:29.519Z,99465.83
2018-05-31T07:34:57.011Z,99473.39
2018-05-31T07:37:24.475Z,99467.94
2018-05-31T07:39:51.956Z,99470.20
2018-05-31T07:42:19.442Z,99479.19
2018-05-31T07:44:46.904Z,99473.82
2018-05-31T07:47:14.392Z,99480.59
2018-05-31T07:49:41.848Z,99481.75
2018-05-31T07:52:09.331Z,99475.93
2018-05-31T07:54:36.808Z,99473.25
2018-05-31T07:57:04.304Z,99476.41
2018-05-31T07:59:31.796Z,99470.81
2018-05-31T08:02:01.294Z,99473.17
2018-05-31T08:04:28.814Z,99472.34
2018-05-31T08:06:56.296Z,99476.11
2018-05-31T08:09:23.837Z,99472.52
2018-05-31T08:11:51.396Z,99475.78
2018-05-31T08:14:18.909Z,99471.81
2018-05-31T08:19:19.535Z,99468.15
2018-05-31T08:21:47.019Z,99477.92
2018-05-31T08:24:14.540Z,99472.73
2018-05-31T08:26:42.112Z,99473.52
2018-05-31T08:29:09.588Z,99480.66
2018-05-31T08:31:37.557Z,99478.86
2018-05-31T08:34:05.051Z,99476.05
2018-05-31T08:36:32.535Z,99477.01
2018-05-31T08:39:00.573Z,99473.16
2018-05-31T08:41:28.063Z,99466.95
2018-05-31T08:43:55.560Z,99470.65
2018-05-31T08:46:23.032Z,99467.69
2018-05-31T08:48:50.526Z,99469.52
2018-05-31T08:51:17.987Z,99470.50
2018-05-31T08:53:45.479Z,99456.16
2018-05-31T08:56:12.955Z,99468.22
2018-05-31T08:58:40.427Z,99466.67
2018-05-31T09:01:07.879Z,99466.13
2018-05-31T09:03:36.144Z,99465.49
2018-05-31T09:06:03.641Z,99464.80
2018-05-31T09:08:31.125Z,99468.25
2018-05-31T09:10:58.691Z,99455.58
2018-05-31T09:13:26.154Z,99454.13
2018-05-31T09:15:53.687Z,99466.31
2018-05-31T09:18:21.180Z,99465.91
2018-05-31T09:20:48.718Z,99462.73
2018-05-31T09:23:16.204Z,99456.62
2018-05-31T09:25:43.721Z,99460.20
2018-05-31T09:28:11.227Z,99460.30
2018-05-31T09:30:38.727Z,99462.33
2018-05-31T09:33:06.224Z,99463.09
2018-05-31T09:35:33.723Z,99463.42
2018-05-31T09:38:01.246Z,99458.06
2018-05-31T09:40:28.787Z,99456.97
2018-05-31T09:42:56.240Z,99456.97
2018-05-31T09:45:23.722Z,99458.06
2018-05-31T09:47:51.274Z,99457.52
2018-05-31T09:50:18.748Z,99460.28
2018-05-31T09:52:46.300Z,99456.29
2018-05-31T09:55:13.843Z,99461.14
2018-05-31T09:57:41.351Z,99465.84
2018-05-31T10:00:08.868Z,99459.42
2018-05-31T10:02:36.388Z,99457.82
2018-05-31T10:05:03.889Z,99464.81
2018-05-31T10:07:31.399Z,99458.10
2018-05-31T10:09:58.902Z,99451.92
2018-05-31T10:12:26.455Z,99462.55
2018-05-31T10:14:53.980Z,99462.06
2018-05-31T10:17:21.464Z,99450.27
2018-05-31T10:19:48.939Z,99449.83
2018-05-31T10:22:16.499Z,99449.87
2018-05-31T10:24:43.988Z,99457.10
2018-05-31T10:27:12.131Z,99447.52
2018-05-31T10:29:42.695Z,99447.39
2018-05-31T10:32:10.357Z,99448.91
2018-05-31T10:34:37.869Z,99455.00
2018-05-31T10:37:05.360Z,99446.47
2018-05-31T10:39:32.883Z,99436.94
2018-05-31T10:42:00.408Z,99445.15
2018-05-31T10:44:27.912Z,99437.28
2018-05-31T10:46:55.395Z,99442.32
2018-05-31T10:51:54.679Z,99439.68
2018-05-31T10:54:22.211Z,99430.69
2018-05-31T10:56:49.802Z,99428.22
2018-05-31T10:59:17.410Z,99422.02
2018-05-31T11:01:44.951Z,99412.95
2018-05-31T11:04:12.455Z,99417.42
2018-05-31T11:06:39.979Z,99419.90
2018-05-31T11:09:07.513Z,99414.96
2018-05-31T11:11:35.011Z,99410.79
2018-05-31T11:14:02.520Z,99410.78
2018-05-31T11:16:30.034Z,99414.11
2018-05-31T11:18:57.545Z,99401.53
2018-05-31T11:21:25.050Z,99406.56
2018-05-31T11:23:52.543Z,99404.99
2018-05-31T11:26:20.027Z,99402.98
2018-05-31T11:28:47.522Z,99411.60
2018-05-31T11:31:15.060Z,99406.97
2018-05-31T11:33:42.578Z,99401.84
2018-05-31T11:36:10.083Z,99393.29
2018-05-31T11:38:37.621Z,99393.02
2018-05-31T11:41:05.236Z,99395.86
2018-05-31T11:43:33.333Z,99392.38
2018-05-31T11:46:00.839Z,99381.70
2018-05-31T11:48:28.407Z,99381.67
2018-05-31T11:50:55.932Z,99370.81
2018-05-31T11:53:23.456Z,99382.89
2018-05-31T11:55:50.968Z,99395.41
2018-05-31T11:58:18.456Z,99383.66
2018-05-31T12:00:46.200Z,99391.33
2018-05-31T12:03:13.746Z,99379.12
2018-05-31T12:05:41.301Z,99374.87
2018-05-31T12:08:08.859Z,99373.22
2018-05-31T12:10:36.355Z,99374.88
2018-05-31T12:13:05.851Z,99365.30
2018-05-31T12:15:33.374Z,99369.86
2018-05-31T12:18:00.921Z,99367.68
2018-05-31T12:20:30.737Z,99355.73
2018-05-31T12:22:58.311Z,99357.05
2018-05-31T12:25:25.821Z,99355.53
2018-05-31T12:27:53.328Z,99358.66
2018-05-31T12:30:20.808Z,99348.13
2018-05-31T12:32:48.312Z,99339.39
2018-05-31T12:35:15.854Z,99343.31
2018-05-31T12:37:43.453Z,99333.06
2018-05-31T12:40:10.973Z,99335.73
2018-05-31T12:42:38.468Z,99328.97
2018-05-31T12:45:07.755Z,99340.28
2018-05-31T12:47:35.342Z,99326.45
2018-05-31T12:50:02.820Z,99330.54
2018-05-31T12:52:30.302Z,99330.75
2018-05-31T12:54:57.910Z,99326.63
2018-05-31T12:57:25.456Z,99336.53
2018-05-31T12:59:52.944Z,99327.14
2018-05-31T13:02:20.451Z,99335.12
2018-05-31T13:04:47.943Z,99336.70
2018-05-31T13:07:15.446Z,99332.47
2018-05-31T13:09:42.955Z,99335.67
2018-05-31T13:12:10.448Z,99326.50
2018-05-31T13:14:37.956Z,99333.31
2018-05-31T13:17:05.471Z,99319.03
2018-05-31T13:19:33.451Z,99324.89
2018-05-31T13:22:00.935Z,99314.34
2018-05-31T13:24:28.480Z,99327.06
2018-05-31T13:26:56.012Z,99329.55
2018-05-31T13:29:23.491Z,99322.54
2018-05-31T13:31:51.004Z,99325.31
2018-05-31T13:34:18.592Z,99326.45
2018-05-31T13:36:46.107Z,99328.65
2018-05-31T13:39:13.604Z,99323.94
2018-05-31T13:41:41.170Z,99322.16
2018-05-31T13:44:08.681Z,99323.78
2018-05-31T13:46:36.180Z,99314.86
2018-05-31T13:49:03.695Z,99307.37
2018-05-31T13:51:31.185Z,99313.47
2018-05-31T13:53:58.664Z,99312.73
2018-05-31T13:56:26.872Z,99307.22
2018-05-31T13:58:54.367Z,99305.64
2018-05-31T14:01:21.969Z,99303.58
2018-05-31T14:03:49.456Z,99297.13
2018-05-31T14:06:17.112Z,99298.58
2018-05-31T14:08:44.620Z,99297.09
2018-05-31T14:11:12.132Z,99297.13
2018-05-31T14:13:39.665Z,99298.31
2018-05-31T14:16:07.214Z,99305.11
2018-05-31T14:18:34.707Z,99299.63
2018-05-31T14:21:02.234Z,99310.98
2018-05-31T14:23:29.722Z,99299.89
2018-05-31T14:25:57.258Z,99298.80
2018-05-31T14:28:24.742Z,99300.03
2018-05-31T14:30:52.231Z,99295.84
2018-05-31T14:33:19.774Z,99289.38
2018-05-31T14:35:47.294Z,99286.27
2018-05-31T14:38:14.783Z,99291.78
2018-05-31T14:40:42.316Z,99282.55
2018-05-31T14:43:09.824Z,99282.45
2018-05-31T14:45:37.357Z,99280.91
2018-05-31T14:48:06.398Z,99269.55
2018-05-31T14:50:33.886Z,99283.09
2018-05-31T14:53:01.396Z,99273.95
2018-05-31T14:55:28.900Z,99282.32
2018-05-31T14:57:56.384Z,99279.97
2018-05-31T15:00:23.903Z,99285.22
2018-05-31T15:02:51.403Z,99290.43
2018-05-31T15:05:19.010Z,99289.91
2018-05-31T15:07:49.959Z,99295.66
2018-05-31T15:10:17.447Z,99288.55
2018-05-31T15:12:44.951Z,99285.00
2018-05-31T15:15:12.455Z,99281.75
2018-05-31T15:17:39.978Z,99286.30
2018-05-31T15:20:07.471Z,99276.67
2018-05-31T15:22:34.955Z,99279.72
2018-05-31T15:25:02.472Z,99282.08
2018-05-31T15:27:29.963Z,99275.38
2018-05-31T15:29:57.456Z,99277.81
2018-05-31T15:32:24.947Z,99270.97
2018-05-31T15:34:52.546Z,99273.98
2018-05-31T15:37:20.033Z,99275.79
2018-05-31T15:39:47.561Z,99275.97
2018-05-31T15:42:15.052Z,99277.39
2018-05-31T15:44:42.537Z,99281.74
2018-05-31T15:47:10.019Z,99277.33
2018-05-31T15:49:37.612Z,99287.13
2018-05-31T15:52:05.130Z,99275.95
2018-05-31T15:54:32.634Z,99278.77
2018-05-31T15:57:00.123Z,99269.84
2018-05-31T15:59:27.632Z,99268.45
2018-05-31T16:01:55.113Z,99269.06
2018-05-31T16:04:22.612Z,99260.52
2018-05-31T16:06:50.124Z,99263.56
2018-05-31T16:09:17.712Z,99262.00
2018-05-31T16:11:45.191Z,99251.07
2018-05-31T16:14:12.692Z,99256.09
2018-05-31T16:16:40.213Z,99261.03
2018-05-31T16:19:07.708Z,99264.03
2018-05-31T16:21:36.092Z,99268.47
2018-05-31T16:24:03.595Z,99267.63
2018-05-31T16:26:31.202Z,99274.22
2018-05-31T16:28:58.707Z,99270.06
2018-05-31T16:31:26.260Z,99274.27
2018-05-31T16:33:53.915Z,99269.36
2018-05-31T16:36:21.565Z,99278.02
2018-05-31T16:38:49.120Z,99278.76
2018-05-31T16:41:16.628Z,99277.61
2018-05-31T16:43:44.163Z,99283.89
2018-05-31T16:46:11.684Z,99289.08
2018-05-31T16:48:39.177Z,99292.16
2018-05-31T16:51:06.670Z,99286.33
2018-05-31T16:53:34.166Z,99286.53
2018-05-31T16:56:01.675Z,99282.98
2018-05-31T16:58:29.242Z,99290.98
2018-05-31T17:00:56.744Z,99286.75
2018-05-31T17:03:24.271Z,99290.44
2018-05-31T17:05:52.657Z,99284.24
2018-05-31T17:08:20.150Z,99289.70
2018-05-31T17:10:47.628Z,99288.20
2018-05-31T17:13:15.163Z,99295.09
2018-05-31T17:15:42.673Z,99292.41
2018-05-31T17:18:10.167Z,99291.08
2018-05-31T17:20:37.658Z,99288.03
2018-05-31T17:23:06.167Z,99280.73
2018-05-31T17:25:33.715Z,99283.00
2018-05-31T17:28:01.231Z,99283.47
2018-05-31T17:30:28.767Z,99278.44
2018-05-31T17:32:56.620Z,99280.22
2018-05-31T17:35:24.248Z,99274.22
2018-05-31T17:37:51.724Z,99273.72
2018-05-31T17:40:19.184Z,99278.89
2018-05-31T17:42:46.686Z,99271.32
2018-05-31T17:45:14.159Z,99279.52
2018-05-31T17:47:41.732Z,99277.98
2018-05-31T17:50:09.221Z,99279.53
2018-05-31T17:52:36.748Z,99275.22
2018-05-31T17:55:04.281Z,99274.38
2018-05-31T17:57:32.057Z,99272.20
2018-05-31T17:59:59.535Z,99265.03
2018-05-31T18:02:27.001Z,99260.69
2018-05-31T18:04:54.503Z,99263.27
2018-05-31T18:07:21.947Z,99258.69
2018-05-31T18:09:49.502Z,99256.80
2018-05-31T18:12:17.007Z,99262.83
2018-05-31T18:14:44.496Z,99267.52
2018-05-31T18:17:11.996Z,99268.66
2018-05-31T18:19:39.594Z,99267.83
2018-05-31T18:22:07.060Z,99270.69
2018-05-31T18:24:34.569Z,99273.41
2018-05-31T18:27:02.073Z,99270.55
2018-05-31T18:29:30.051Z,99274.83
2018-05-31T18:31:57.547Z,99275.20
2018-05-31T18:34:25.043Z,99274.23
2018-05-31T18:36:52.542Z,99276.83
2018-05-31T18:39:20.020Z,99270.80
2018-05-31T18:41:47.516Z,99277.20
2018-05-31T18:44:15.007Z,99285.01
2018-05-31T18:46:42.634Z,99289.68
2018-05-31T18:49:10.295Z,99291.46
2018-05-31T18:51:37.864Z,99293.03
2018-05-31T18:54:05.321Z,99292.34
2018-05-31T18:56:32.801Z,99293.02
2018-05-31T18:59:00.280Z,99294.41
2018-05-31T19:01:27.748Z,99297.96
2018-05-31T19:03:55.227Z,99304.58
2018-05-31T19:06:22.702Z,99305.56
2018-05-31T19:08:50.197Z,99308.88
2018-05-31T19:11:17.726Z,99310.30
2018-05-31T19:13:50.680Z,99302.70
2018-05-31T19:16:18.164Z,99303.23
2018-05-31T19:18:51.158Z,99301.08
2018-05-31T19:21:18.636Z,99313.34
2018-05-31T19:23:46.149Z,99314.45
2018-05-31T19:26:13.611Z,99318.15
2018-05-31T19:28:41.159Z,99321.69
2018-05-31T19:31:10.452Z,99321.05
2018-05-31T19:33:37.928Z,99326.12
2018-05-31T19:36:11.102Z,99330.48
2018-05-31T19:38:38.571Z,99329.92
2018-05-31T19:41:06.058Z,99330.77
2018-05-31T19:43:39.136Z,99333.75
2018-05-31T19:46:06.667Z,99332.98
2018-05-31T19:48:34.131Z,99336.87
2018-05-31T19:51:01.634Z,99336.08
2018-05-31T19:53:34.649Z,99335.48
2018-05-31T19:56:02.154Z,99337.75
2018-05-31T19:58:35.149Z,99337.20
2018-05-31T20:01:08.602Z,99343.87
2018-05-31T20:03:36.860Z,99341.66
2018-05-31T20:06:04.338Z,99345.32
2018-05-31T20:08:31.805Z,99344.55
2018-05-31T20:11:04.578Z,99347.13
2018-05-31T20:13:32.088Z,99349.08
2018-05-31T20:15:59.570Z,99351.03
2018-05-31T20:18:27.088Z,99355.47
2018-05-31T20:20:55.698Z,99347.89
2018-05-31T20:23:23.193Z,99352.28
2018-05-31T20:25:50.693Z,99352.84
2018-05-31T20:28:18.649Z,99347.01
2018-05-31T20:30:46.198Z,99352.64
2018-05-31T20:33:13.662Z,99351.05
2018-05-31T20:35:41.200Z,99349.31
2018-05-31T20:38:08.680Z,99348.89
2018-05-31T20:40:36.153Z,99351.87
2018-05-31T20:43:03.707Z,99353.31
2018-05-31T20:45:31.195Z,99357.24
2018-05-31T20:47:58.677Z,99348.51
2018-05-31T20:50:26.160Z,99354.58
2018-05-31T20:52:53.647Z,99359.09
2018-05-31T20:55:21.186Z,99350.23
2018-05-31T20:57:48.741Z,99357.09
2018-05-31T21:00:16.266Z,99355.41
2018-05-31T21:02:43.752Z,99352.49
2018-05-31T21:05:11.284Z,99352.77
2018-05-31T21:07:38.779Z,99354.98
2018-05-31T21:10:06.319Z,99358.91
2018-05-31T21:12:33.843Z,99360.83
2018-05-31T21:15:01.368Z,99352.72
2018-05-31T21:17:28.863Z,99358.98
2018-05-31T21:19:56.431Z,99362.20
2018-05-31T21:22:23.910Z,99359.66
2018-05-31T21:24:51.386Z,99359.20
2018-05-31T21:27:18.933Z,99359.17
2018-05-31T21:29:46.416Z,99360.95
2018-05-31T21:32:14.409Z,99370.30
2018-05-31T21:34:41.937Z,99366.01
2018-05-31T21:37:09.468Z,99361.93
2018-05-31T21:39:37.018Z,99368.87
2018-05-31T21:42:04.533Z,99366.81
2018-05-31T21:44:32.040Z,99362.02
2018-05-31T21:46:59.526Z,99360.51
2018-05-31T21:49:27.025Z,99357.77
2018-05-31T21:51:54.483Z,99360.33
2018-05-31T21:54:21.962Z,99359.28
2018-05-31T21:56:49.457Z,99358.39
2018-05-31T21:59:16.940Z,99365.34
2018-05-31T22:01:44.437Z,99362.52
2018-05-31T22:04:12.401Z,99363.05
2018-05-31T22:06:40.018Z,99359.88
2018-05-31T22:09:07.498Z,99356.79
2018-05-31T22:14:01.848Z,99350.59
2018-05-31T22:16:29.346Z,99352.77
2018-05-31T22:18:57.318Z,99343.50
2018-05-31T22:21:24.822Z,99345.16
2018-05-31T22:23:52.369Z,99349.86
2018-05-31T22:26:19.871Z,99349.23
2018-05-31T22:28:47.370Z,99345.64
2018-05-31T22:31:14.901Z,99341.34
2018-05-31T22:33:42.420Z,99344.42
2018-05-31T22:36:09.892Z,99346.52
2018-05-31T22:38:37.363Z,99346.20
2018-05-31T22:41:04.872Z,99346.73
2018-05-31T22:43:32.338Z,99351.06
2018-05-31T22:45:59.878Z,99348.22
2018-05-31T22:48:28.218Z,99346.72
2018-05-31T22:50:58.817Z,99340.60
2018-05-31T22:53:26.321Z,99346.94
2018-05-31T22:55:53.830Z,99346.26
2018-05-31T22:58:21.375Z,99347.92
2018-05-31T23:00:48.869Z,99350.98
2018-05-31T23:03:17.052Z,99352.07
2018-05-31T23:05:44.544Z,99348.02
2018-05-31T23:08:12.004Z,99353.87
2018-05-31T23:10:39.491Z,99356.14
2018-05-31T23:13:07.021Z,99358.41
2018-05-31T23:15:34.623Z,99355.30
2018-05-31T23:18:02.128Z,99353.78
2018-05-31T23:20:29.656Z,99355.00
2018-05-31T23:22:57.141Z,99350.30
2018-05-31T23:25:24.663Z,99354.55
2018-05-31T23:27:52.234Z,99350.45
2018-05-31T23:30:19.838Z,99345.43
2018-05-31T23:32:47.400Z,99357.33
2018-05-31T23:35:14.957Z,99351.90
2018-05-31T23:37:42.453Z,99349.48
2018-05-31T23:40:10.377Z,99350.16
2018-05-31T23:42:37.873Z,99353.19
2018-05-31T23:45:05.340Z,99355.73
2018-05-31T23:47:32.862Z,99360.44
2018-05-31T23:50:00.319Z,99361.96
2018-05-31T23:52:27.781Z,99361.99
2018-05-31T23:54:55.275Z,99359.66
2018-05-31T23:57:22.881Z,99366.80
2018-05-31T23:59:50.388Z,99365.09
